Time;durP1;ratioP1;P1;durP2;ratioP2;P2;SDS_P1;SDS_P2;PMS_P1;PMS_P2;Temp;Humidity;BMP_temperature;BMP_pressure;BME280_temperature;BME280_humidity;BME280_pressure;Samples;Min_cycle;Max_cycle;Signal;HPM_P1;HPM_P2
2024/02/11 00:01:58;;;;;;;16.98;9.70;;;;;;;;;;4935550;29;20042;-79
2024/02/11 00:04:24;;;;;;;16.27;9.30;;;;;;;;;;4926180;29;20044;-80
2024/02/11 00:06:49;;;;;;;16.85;8.70;;;;;;;;;;4944289;29;20070;-79
2024/02/11 00:09:15;;;;;;;15.27;8.63;;;;;;;;;;4928599;29;20495;-79
2024/02/11 00:11:40;;;;;;;15.02;8.82;;;;;;;;;;4927956;29;20091;-80
2024/02/11 00:14:06;;;;;;;16.83;8.98;;;;;;;;;;4911772;29;20035;-79
2024/02/11 00:16:32;;;;;;;15.68;9.10;;;;;;;;;;4922625;29;20036;-80
2024/02/11 00:18:58;;;;;;;16.02;8.82;;;;;;;;;;4922599;29;20083;-80
2024/02/11 00:21:23;;;;;;;19.25;8.77;;;;;;;;;;4914633;29;20051;-79
2024/02/11 00:23:50;;;;;;;17.02;9.07;;;;;;;;;;4941007;29;20035;-79
2024/02/11 00:26:16;;;;;;;15.10;7.90;;;;;;;;;;4934476;29;20115;-78
2024/02/11 00:28:42;;;;;;;16.23;9.02;;;;;;;;;;4926210;29;20078;-80
2024/02/11 00:31:08;;;;;;;12.70;8.15;;;;;;;;;;4940226;29;20046;-81
2024/02/11 00:33:34;;;;;;;13.05;8.32;;;;;;;;;;4900796;29;20051;-81
2024/02/11 00:36:00;;;;;;;14.30;8.13;;;;;;;;;;4932435;29;20039;-81
2024/02/11 00:38:26;;;;;;;17.50;8.27;;;;;;;;;;4952794;29;20060;-80
2024/02/11 00:40:52;;;;;;;14.82;7.95;;;;;;;;;;4953175;29;20083;-80
2024/02/11 00:43:17;;;;;;;19.60;9.30;;;;;;;;;;4953960;29;20031;-81
2024/02/11 00:45:43;;;;;;;17.45;8.35;;;;;;;;;;4932684;29;20046;-80
2024/02/11 00:48:10;;;;;;;16.17;8.35;;;;;;;;;;4925813;29;20047;-80
2024/02/11 00:50:35;;;;;;;13.88;8.05;;;;;;;;;;4933763;29;20035;-82
2024/02/11 00:53:02;;;;;;;12.07;7.63;;;;;;;;;;4939119;29;20050;-81
2024/02/11 00:55:28;;;;;;;12.63;7.80;;;;;;;;;;4966424;29;20055;-80
2024/02/11 00:57:54;;;;;;;16.90;8.10;;;;;;;;;;4941782;29;20035;-80
2024/02/11 01:00:22;;;;;;;14.15;7.70;;;;;;;;;;4941057;29;20050;-82
2024/02/11 01:02:48;;;;;;;16.50;8.17;;;;;;;;;;4956719;28;20024;-81
2024/02/11 01:05:15;;;;;;;13.20;7.65;;;;;;;;;;4945214;28;20129;-80
2024/02/11 01:07:41;;;;;;;16.52;8.57;;;;;;;;;;4977272;28;20023;-80
2024/02/11 01:10:11;;;;;;;13.23;7.57;;;;;;;;;;4960265;28;20095;-81
2024/02/11 01:12:40;;;;;;;14.63;7.70;;;;;;;;;;4931343;29;20531;-80
2024/02/11 01:15:07;;;;;;;11.88;7.05;;;;;;;;;;4964507;29;20032;-81
2024/02/11 01:17:32;;;;;;;14.95;7.53;;;;;;;;;;4947802;29;20480;-81
2024/02/11 01:19:58;;;;;;;14.32;7.82;;;;;;;;;;4940887;29;20035;-78
2024/02/11 01:22:24;;;;;;;11.95;7.47;;;;;;;;;;4942009;29;20107;-80
2024/02/11 01:24:50;;;;;;;14.65;8.13;;;;;;;;;;4924134;29;20024;-80
2024/02/11 01:27:15;;;;;;;12.50;7.70;;;;;;;;;;4911486;29;20172;-80
2024/02/11 01:29:41;;;;;;;12.52;7.57;;;;;;;;;;4938285;29;20117;-79
2024/02/11 01:32:09;;;;;;;16.13;7.15;;;;;;;;;;4953906;28;20414;-79
2024/02/11 01:34:34;;;;;;;13.60;7.93;;;;;;;;;;4923676;29;20554;-80
2024/02/11 01:37:01;;;;;;;12.60;7.40;;;;;;;;;;4939359;29;20055;-79
2024/02/11 01:39:26;;;;;;;15.43;7.90;;;;;;;;;;4922114;29;20031;-81
2024/02/11 01:41:52;;;;;;;13.18;7.13;;;;;;;;;;4922480;29;20027;-79
2024/02/11 01:44:17;;;;;;;15.35;8.05;;;;;;;;;;4923392;29;20039;-79
2024/02/11 01:46:43;;;;;;;12.77;7.57;;;;;;;;;;4923067;29;20051;-79
2024/02/11 01:49:11;;;;;;;15.50;7.68;;;;;;;;;;4922880;29;20487;-79
2024/02/11 01:51:43;;;;;;;14.52;7.82;;;;;;;;;;4904250;29;20043;-81
2024/02/11 01:54:10;;;;;;;13.55;7.30;;;;;;;;;;4920118;29;20119;-80
2024/02/11 01:56:36;;;;;;;13.32;6.88;;;;;;;;;;4898098;29;20036;-80
2024/02/11 01:59:02;;;;;;;12.95;7.25;;;;;;;;;;4921573;29;20095;-81
2024/02/11 02:01:29;;;;;;;12.98;6.80;;;;;;;;;;4941966;29;20028;-81
2024/02/11 02:03:55;;;;;;;12.00;7.05;;;;;;;;;;4942016;29;20107;-78
2024/02/11 02:06:23;;;;;;;14.02;7.13;;;;;;;;;;4949941;29;20016;-78
2024/02/11 02:08:49;;;;;;;13.27;7.28;;;;;;;;;;4941765;29;20035;-79
2024/02/11 02:11:15;;;;;;;14.52;7.75;;;;;;;;;;4958724;28;20024;-80
2024/02/11 02:13:40;;;;;;;15.65;7.38;;;;;;;;;;4948179;28;20040;-79
2024/02/11 02:16:10;;;;;;;14.52;8.02;;;;;;;;;;4926569;29;20142;-79
2024/02/11 02:18:36;;;;;;;13.63;7.80;;;;;;;;;;4927850;28;20091;-79
2024/02/11 02:21:04;;;;;;;14.02;7.68;;;;;;;;;;4957958;29;20016;-79
2024/02/11 02:23:30;;;;;;;15.88;7.20;;;;;;;;;;4931927;29;20058;-79
2024/02/11 02:25:56;;;;;;;13.35;7.22;;;;;;;;;;4924860;29;20028;-79
2024/02/11 02:28:23;;;;;;;16.00;8.25;;;;;;;;;;4922378;29;20512;-80
2024/02/11 02:30:49;;;;;;;17.38;8.32;;;;;;;;;;4923114;29;20111;-79
2024/02/11 02:33:14;;;;;;;15.07;8.38;;;;;;;;;;4935108;29;20047;-79
2024/02/11 02:35:40;;;;;;;12.13;7.13;;;;;;;;;;4908820;29;20040;-80
2024/02/11 02:38:06;;;;;;;12.00;7.57;;;;;;;;;;4939581;29;20456;-79
2024/02/11 02:40:32;;;;;;;16.45;7.90;;;;;;;;;;4924892;29;20480;-80
2024/02/11 02:42:58;;;;;;;15.23;7.85;;;;;;;;;;4894653;29;20060;-80
2024/02/11 02:45:24;;;;;;;15.05;7.80;;;;;;;;;;4963941;28;20483;-80
2024/02/11 02:47:49;;;;;;;12.52;7.43;;;;;;;;;;4942564;29;20051;-79
2024/02/11 02:50:15;;;;;;;14.98;7.68;;;;;;;;;;4937745;29;20034;-81
2024/02/11 02:52:44;;;;;;;14.45;7.20;;;;;;;;;;4928324;29;20039;-79
2024/02/11 02:55:09;;;;;;;;;;;;;;;;;;4944107;29;20036;-79
2024/02/11 02:57:35;;;;;;;20.40;7.43;;;;;;;;;;4943495;29;19922;-79
2024/02/11 03:00:05;;;;;;;11.63;6.88;;;;;;;;;;4943272;29;20047;-79
2024/02/11 03:02:31;;;;;;;14.02;7.22;;;;;;;;;;4929657;29;20035;-80
2024/02/11 03:04:56;;;;;;;11.23;6.50;;;;;;;;;;4925853;29;20036;-80
2024/02/11 03:07:23;;;;;;;14.88;6.93;;;;;;;;;;4922845;29;20056;-79
2024/02/11 03:09:50;;;;;;;14.60;6.47;;;;;;;;;;4939835;29;20156;-80
2024/02/11 03:12:16;;;;;;;12.77;6.80;;;;;;;;;;4923574;29;20039;-80
2024/02/11 03:14:41;;;;;;;16.98;6.82;;;;;;;;;;4927110;29;20413;-80
2024/02/11 03:17:07;;;;;;;11.90;6.35;;;;;;;;;;4926076;29;20062;-79
2024/02/11 03:19:32;;;;;;;14.20;6.90;;;;;;;;;;4924207;29;20031;-81
2024/02/11 03:21:58;;;;;;;16.05;6.80;;;;;;;;;;4916453;29;20091;-80
2024/02/11 03:24:23;;;;;;;14.43;6.57;;;;;;;;;;4938925;29;20068;-80
2024/02/11 03:26:49;;;;;;;13.25;7.10;;;;;;;;;;4923971;29;20032;-80
2024/02/11 03:29:15;;;;;;;12.23;6.32;;;;;;;;;;4933182;29;20118;-79
2024/02/11 03:31:41;;;;;;;13.23;7.03;;;;;;;;;;4958883;29;20107;-79
2024/02/11 03:34:06;;;;;;;17.05;7.68;;;;;;;;;;4948809;29;20035;-82
2024/02/11 03:36:32;;;;;;;14.07;8.13;;;;;;;;;;4932473;29;20048;-81
2024/02/11 03:38:58;;;;;;;15.25;7.97;;;;;;;;;;4946732;29;20031;-80
2024/02/11 03:41:23;;;;;;;18.98;9.20;;;;;;;;;;4930364;29;20056;-79
2024/02/11 03:43:49;;;;;;;19.27;9.05;;;;;;;;;;4931700;29;20071;-81
2024/02/11 03:46:16;;;;;;;16.95;9.43;;;;;;;;;;4935078;29;20061;-80
2024/02/11 03:48:41;;;;;;;19.52;10.18;;;;;;;;;;4935314;29;20044;-81
2024/02/11 03:51:07;;;;;;;18.38;9.68;;;;;;;;;;4983080;23;20164;-79
2024/02/11 03:53:36;;;;;;;18.48;10.10;;;;;;;;;;4962655;28;20524;-78
2024/02/11 03:56:08;;;;;;;18.75;10.73;;;;;;;;;;4948729;29;20550;-80
2024/02/11 03:58:35;;;;;;;18.83;11.27;;;;;;;;;;4935728;29;20023;-81
2024/02/11 04:01:00;;;;;;;22.10;10.93;;;;;;;;;;4954853;29;20119;-78
2024/02/11 04:03:30;;;;;;;22.98;11.77;;;;;;;;;;4956484;29;20122;-79
2024/02/11 04:05:58;;;;;;;27.33;12.57;;;;;;;;;;4923885;29;20120;-80
2024/02/11 04:08:24;;;;;;;27.67;13.63;;;;;;;;;;4958398;29;20079;-79
2024/02/11 04:10:52;;;;;;;22.95;12.93;;;;;;;;;;4926942;29;20027;-79
2024/02/11 04:13:24;;;;;;;24.42;14.15;;;;;;;;;;4939964;29;20035;-78
2024/02/11 04:15:53;;;;;;;30.63;15.43;;;;;;;;;;4956693;29;20036;-79
2024/02/11 04:18:21;;;;;;;32.05;16.02;;;;;;;;;;4937949;29;20036;-80
2024/02/11 04:20:46;;;;;;;35.45;16.85;;;;;;;;;;4956495;29;20036;-78
2024/02/11 04:23:14;;;;;;;31.92;17.55;;;;;;;;;;4956547;29;20443;-79
2024/02/11 04:25:45;;;;;;;38.35;18.08;;;;;;;;;;4938412;29;20063;-78
2024/02/11 04:28:11;;;;;;;35.17;19.83;;;;;;;;;;4928902;29;20495;-79
2024/02/11 04:30:42;;;;;;;36.03;18.52;;;;;;;;;;4945253;29;20098;-79
2024/02/11 04:33:08;;;;;;;36.40;18.73;;;;;;;;;;4931416;29;20039;-78
2024/02/11 04:35:35;;;;;;;39.17;19.88;;;;;;;;;;4899957;29;20112;-78
2024/02/11 04:38:07;;;;;;;37.72;20.30;;;;;;;;;;4946992;29;20043;-79
2024/02/11 04:40:36;;;;;;;36.78;19.02;;;;;;;;;;4923906;29;20039;-78
2024/02/11 04:43:03;;;;;;;35.08;18.80;;;;;;;;;;4927632;29;20075;-79
2024/02/11 04:45:30;;;;;;;26.90;13.73;;;;;;;;;;4926989;29;20056;-79
2024/02/11 04:47:59;;;;;;;36.28;19.20;;;;;;;;;;4944428;29;20044;-79
2024/02/11 04:50:27;;;;;;;39.42;19.33;;;;;;;;;;4945408;29;20035;-78
2024/02/11 04:52:56;;;;;;;38.63;18.85;;;;;;;;;;4923708;29;20096;-78
2024/02/11 04:55:28;;;;;;;36.28;18.40;;;;;;;;;;4924313;29;20048;-79
2024/02/11 04:58:01;;;;;;;41.75;20.45;;;;;;;;;;4940346;29;20032;-80
2024/02/11 05:00:33;;;;;;;39.38;18.90;;;;;;;;;;4931315;29;20032;-79
2024/02/11 05:03:03;;;;;;;36.75;18.95;;;;;;;;;;4949844;29;20076;-79
2024/02/11 05:05:30;;;;;;;37.97;18.15;;;;;;;;;;4948984;29;20077;-79
2024/02/11 05:08:00;;;;;;;;;;;;;;;;;;4949966;29;20038;-79
2024/02/11 05:10:28;;;;;;;33.05;18.08;;;;;;;;;;4941589;29;19949;-79
2024/02/11 05:12:57;;;;;;;35.88;18.20;;;;;;;;;;4914151;29;20097;-77
2024/02/11 05:15:25;;;;;;;36.53;18.45;;;;;;;;;;4930880;29;20044;-79
2024/02/11 05:17:51;;;;;;;37.28;18.00;;;;;;;;;;4945951;29;20054;-78
2024/02/11 05:20:21;;;;;;;33.35;17.92;;;;;;;;;;4943331;29;20031;-79
2024/02/11 05:22:49;;;;;;;34.35;18.02;;;;;;;;;;4927030;29;20040;-79
2024/02/11 05:25:19;;;;;;;37.63;17.38;;;;;;;;;;4923433;29;20051;-78
2024/02/11 05:27:59;;;;;;;32.90;17.50;;;;;;;;;;4923322;29;20048;-79
2024/02/11 05:30:27;;;;;;;37.42;17.48;;;;;;;;;;4934879;29;20044;-77
2024/02/11 05:32:54;;;;;;;40.20;18.40;;;;;;;;;;4943134;29;20048;-79
2024/02/11 05:35:23;;;;;;;41.20;18.90;;;;;;;;;;4927891;29;20035;-80
2024/02/11 05:37:58;;;;;;;33.60;18.95;;;;;;;;;;4926341;29;20112;-80
2024/02/11 05:40:26;;;;;;;38.80;18.38;;;;;;;;;;4948767;29;20038;-79
2024/02/11 05:42:53;;;;;;;35.67;17.50;;;;;;;;;;4913268;29;20067;-81
2024/02/11 05:45:20;;;;;;;32.47;16.95;;;;;;;;;;4928899;29;20132;-79
2024/02/11 05:48:05;;;;;;;35.33;18.45;;;;;;;;;;4928104;29;20040;-78
2024/02/11 05:50:30;;;;;;;32.67;18.58;;;;;;;;;;4929213;29;20032;-78
2024/02/11 05:52:57;;;;;;;36.42;16.58;;;;;;;;;;4918929;29;20051;-78
2024/02/11 05:55:23;;;;;;;37.78;17.95;;;;;;;;;;4940619;29;20091;-76
2024/02/11 05:57:50;;;;;;;34.05;17.20;;;;;;;;;;4930368;29;20038;-78
2024/02/11 06:00:18;;;;;;;34.58;17.48;;;;;;;;;;4947904;29;20107;-79
2024/02/11 06:02:44;;;;;;;;;;;;;;;;;;4945825;29;20042;-78
2024/02/11 06:05:14;;;;;;;30.40;16.08;;;;;;;;;;4943007;29;19915;-77
2024/02/11 06:07:40;;;;;;;38.20;18.02;;;;;;;;;;4939699;29;20028;-78
2024/02/11 06:10:11;;;;;;;34.20;17.02;;;;;;;;;;4939193;29;20115;-78
2024/02/11 06:12:37;;;;;;;37.38;17.50;;;;;;;;;;4941355;29;20114;-78
2024/02/11 06:15:03;;;;;;;33.53;16.45;;;;;;;;;;4929692;29;20063;-79
2024/02/11 06:17:29;;;;;;;33.03;16.95;;;;;;;;;;4928060;29;20052;-79
2024/02/11 06:19:55;;;;;;;29.92;16.48;;;;;;;;;;4942334;29;20046;-76
2024/02/11 06:22:21;;;;;;;35.63;16.95;;;;;;;;;;4936167;29;20490;-79
2024/02/11 06:24:47;;;;;;;32.13;16.73;;;;;;;;;;4936212;29;20039;-79
2024/02/11 06:27:12;;;;;;;33.72;16.35;;;;;;;;;;4907462;29;20032;-79
2024/02/11 06:29:42;;;;;;;32.95;16.08;;;;;;;;;;4933069;29;20546;-79
2024/02/11 06:32:08;;;;;;;31.45;16.23;;;;;;;;;;4893684;29;20094;-79
2024/02/11 06:34:36;;;;;;;29.13;16.13;;;;;;;;;;4939806;29;20016;-79
2024/02/11 06:37:03;;;;;;;32.05;16.48;;;;;;;;;;4939769;29;20028;-79
2024/02/11 06:39:29;;;;;;;34.10;16.02;;;;;;;;;;4937306;29;20032;-79
2024/02/11 06:41:56;;;;;;;32.67;17.08;;;;;;;;;;4928644;29;20023;-78
2024/02/11 06:44:26;;;;;;;34.05;16.55;;;;;;;;;;4937715;29;20062;-80
2024/02/11 06:46:54;;;;;;;31.95;16.88;;;;;;;;;;4936811;29;20122;-79
2024/02/11 06:49:21;;;;;;;32.88;16.60;;;;;;;;;;4937311;29;20398;-78
2024/02/11 06:51:47;;;;;;;33.35;17.55;;;;;;;;;;4933518;29;20040;-79
2024/02/11 06:54:12;;;;;;;32.38;16.85;;;;;;;;;;4903890;29;20043;-77
2024/02/11 06:56:38;;;;;;;29.90;15.95;;;;;;;;;;4937187;29;20043;-76
2024/02/11 06:59:03;;;;;;;35.67;17.40;;;;;;;;;;4935905;29;20051;-78
2024/02/11 07:01:29;;;;;;;38.45;17.45;;;;;;;;;;4927284;29;20484;-78
2024/02/11 07:03:55;;;;;;;29.27;16.25;;;;;;;;;;4929119;29;20028;-78
2024/02/11 07:06:21;;;;;;;38.05;17.45;;;;;;;;;;4935644;29;20034;-77
2024/02/11 07:08:47;;;;;;;32.03;16.08;;;;;;;;;;4927615;29;20044;-77
2024/02/11 07:11:16;;;;;;;33.33;16.45;;;;;;;;;;4900602;29;20036;-77
2024/02/11 07:13:44;;;;;;;33.42;17.17;;;;;;;;;;4928723;29;20036;-77
2024/02/11 07:16:09;;;;;;;33.13;17.75;;;;;;;;;;4934694;29;20111;-78
2024/02/11 07:18:38;;;;;;;39.55;18.13;;;;;;;;;;4936761;29;20112;-77
2024/02/11 07:21:03;;;;;;;;;;;;;;;;;;4937069;29;20034;-78
2024/02/11 07:23:29;;;;;;;38.40;17.08;;;;;;;;;;4911569;29;19911;-77
2024/02/11 07:25:54;;;;;;;40.38;16.63;;;;;;;;;;4920643;29;20032;-78
2024/02/11 07:28:22;;;;;;;36.10;17.27;;;;;;;;;;4920079;29;20035;-78
2024/02/11 07:30:47;;;;;;;42.00;18.08;;;;;;;;;;4938400;29;20035;-78
2024/02/11 07:33:14;;;;;;;42.90;18.80;;;;;;;;;;4905473;29;20178;-79
2024/02/11 07:35:39;;;;;;;38.75;18.23;;;;;;;;;;4914499;29;20035;-78
2024/02/11 07:38:05;;;;;;;39.65;18.52;;;;;;;;;;4920747;29;20033;-79
2024/02/11 07:40:31;;;;;;;33.38;17.13;;;;;;;;;;4922371;29;20511;-79
2024/02/11 07:42:57;;;;;;;35.65;18.73;;;;;;;;;;4937977;29;20035;-78
2024/02/11 07:45:23;;;;;;;35.10;17.05;;;;;;;;;;4939257;29;20399;-79
2024/02/11 07:47:50;;;;;;;37.80;18.58;;;;;;;;;;4934831;29;20399;-79
2024/02/11 07:50:17;;;;;;;38.15;17.50;;;;;;;;;;4916577;29;20027;-78
2024/02/11 07:52:43;;;;;;;40.70;17.63;;;;;;;;;;4943697;29;20035;-78
2024/02/11 07:55:12;;;;;;;39.45;18.05;;;;;;;;;;4926470;29;20572;-79
2024/02/11 07:57:37;;;;;;;;;;;;;;;;;;4939483;29;20038;-77
2024/02/11 08:00:03;;;;;;;34.00;16.42;;;;;;;;;;4931834;29;19910;-76
2024/02/11 08:02:31;;;;;;;38.05;17.67;;;;;;;;;;4948739;29;20480;-77
2024/02/11 08:04:56;;;;;;;39.00;17.52;;;;;;;;;;4938245;29;20034;-77
2024/02/11 08:07:22;;;;;;;39.22;18.85;;;;;;;;;;4920497;29;20044;-79
2024/02/11 08:09:47;;;;;;;43.78;18.48;;;;;;;;;;4913075;29;20325;-76
2024/02/11 08:12:13;;;;;;;45.65;17.98;;;;;;;;;;4906323;29;20100;-76
2024/02/11 08:14:40;;;;;;;43.25;18.63;;;;;;;;;;4901169;29;20032;-77
2024/02/11 08:17:06;;;;;;;37.20;17.63;;;;;;;;;;4935257;29;20047;-78
2024/02/11 08:19:31;;;;;;;43.00;18.67;;;;;;;;;;4928902;29;20021;-78
2024/02/11 08:21:57;;;;;;;40.67;19.02;;;;;;;;;;4936398;29;20035;-78
2024/02/11 08:24:23;;;;;;;36.90;17.73;;;;;;;;;;4923809;29;20031;-78
2024/02/11 08:26:49;;;;;;;36.92;17.52;;;;;;;;;;4931994;29;20031;-79
2024/02/11 08:29:15;;;;;;;38.80;17.73;;;;;;;;;;4906159;29;20043;-78
2024/02/11 08:31:40;;;;;;;36.75;18.33;;;;;;;;;;4903730;29;20039;-80
2024/02/11 08:34:06;;;;;;;41.25;18.20;;;;;;;;;;4936175;29;20036;-78
2024/02/11 08:36:32;;;;;;;44.10;19.35;;;;;;;;;;4920299;29;20043;-79
2024/02/11 08:39:00;;;;;;;42.95;19.65;;;;;;;;;;4937242;29;20114;-78
2024/02/11 08:41:25;;;;;;;41.90;19.60;;;;;;;;;;4933086;29;20027;-79
2024/02/11 08:43:51;;;;;;;43.75;18.85;;;;;;;;;;4937093;29;20099;-77
2024/02/11 08:46:17;;;;;;;40.50;18.70;;;;;;;;;;4936543;29;20503;-77
2024/02/11 08:48:42;;;;;;;48.35;19.70;;;;;;;;;;4936430;29;20027;-78
2024/02/11 08:51:10;;;;;;;51.78;19.55;;;;;;;;;;4935974;29;20052;-78
2024/02/11 08:53:36;;;;;;;44.17;18.92;;;;;;;;;;4929798;29;20059;-79
2024/02/11 08:56:01;;;;;;;44.45;18.95;;;;;;;;;;4935528;29;20067;-78
2024/02/11 08:58:31;;;;;;;38.78;18.80;;;;;;;;;;4920801;29;20447;-78
2024/02/11 09:00:59;;;;;;;41.92;19.50;;;;;;;;;;4936574;29;20019;-76
2024/02/11 09:03:24;;;;;;;38.22;18.88;;;;;;;;;;4921044;29;20399;-77
2024/02/11 09:05:51;;;;;;;38.88;19.13;;;;;;;;;;4910483;29;20034;-77
2024/02/11 09:08:17;;;;;;;42.50;18.23;;;;;;;;;;4937005;29;20055;-78
2024/02/11 09:10:43;;;;;;;45.90;19.25;;;;;;;;;;4906453;29;20043;-78
2024/02/11 09:13:10;;;;;;;35.58;18.42;;;;;;;;;;4905846;29;20620;-78
2024/02/11 09:15:36;;;;;;;40.65;19.27;;;;;;;;;;4919188;29;20039;-77
2024/02/11 09:18:01;;;;;;;38.13;17.88;;;;;;;;;;4937067;29;20456;-77
2024/02/11 09:20:27;;;;;;;40.88;19.23;;;;;;;;;;4937485;29;20032;-77
2024/02/11 09:22:53;;;;;;;39.65;18.60;;;;;;;;;;4920398;29;20118;-76
2024/02/11 09:25:18;;;;;;;37.60;17.70;;;;;;;;;;4919374;29;20044;-76
2024/02/11 09:27:44;;;;;;;41.60;20.27;;;;;;;;;;4937524;29;20032;-76
2024/02/11 09:30:15;;;;;;;46.58;20.20;;;;;;;;;;4920009;29;20035;-76
2024/02/11 09:32:41;;;;;;;42.67;19.50;;;;;;;;;;4935843;29;20043;-76
2024/02/11 09:35:07;;;;;;;41.20;18.77;;;;;;;;;;4932995;29;20028;-77
2024/02/11 09:37:33;;;;;;;40.72;18.73;;;;;;;;;;4934698;29;20054;-77
2024/02/11 09:39:59;;;;;;;41.40;20.13;;;;;;;;;;4932932;29;20491;-77
2024/02/11 09:42:24;;;;;;;44.35;19.60;;;;;;;;;;4932467;29;20043;-76
2024/02/11 09:44:51;;;;;;;37.30;17.90;;;;;;;;;;4938672;29;20387;-78
2024/02/11 09:47:17;;;;;;;38.72;19.05;;;;;;;;;;4943372;29;20028;-77
2024/02/11 09:49:46;;;;;;;45.60;20.02;;;;;;;;;;4934128;29;20035;-78
2024/02/11 09:52:13;;;;;;;45.17;20.45;;;;;;;;;;4929631;29;20035;-78
2024/02/11 09:54:39;;;;;;;43.58;20.70;;;;;;;;;;4944395;29;20051;-78
2024/02/11 09:57:05;;;;;;;43.13;18.90;;;;;;;;;;4933453;29;20038;-78
2024/02/11 09:59:31;;;;;;;40.55;19.58;;;;;;;;;;4939345;29;20099;-78
2024/02/11 10:01:58;;;;;;;43.70;20.40;;;;;;;;;;4939693;29;20039;-78
2024/02/11 10:04:27;;;;;;;37.35;19.13;;;;;;;;;;4940072;29;20070;-78
2024/02/11 10:06:53;;;;;;;46.00;18.65;;;;;;;;;;4924218;29;20070;-77
2024/02/11 10:09:19;;;;;;;44.08;20.23;;;;;;;;;;4926344;29;20035;-78
2024/02/11 10:11:45;;;;;;;46.65;20.67;;;;;;;;;;4907477;29;20074;-78
2024/02/11 10:14:13;;;;;;;47.53;20.40;;;;;;;;;;4922936;29;20031;-78
2024/02/11 10:16:42;;;;;;;;;;;;;;;;;;4920049;29;20031;-78
2024/02/11 10:19:09;;;;;;;38.53;16.70;;;;;;;;;;4935450;29;19911;-78
2024/02/11 10:21:35;;;;;;;45.67;18.67;;;;;;;;;;4931184;29;20628;-78
2024/02/11 10:24:04;;;;;;;40.40;17.55;;;;;;;;;;4932602;29;20164;-76
2024/02/11 10:26:33;;;;;;;41.95;19.23;;;;;;;;;;4929446;29;20028;-77
2024/02/11 10:28:59;;;;;;;40.17;18.73;;;;;;;;;;4925869;29;20687;-76
2024/02/11 10:31:25;;;;;;;43.53;21.17;;;;;;;;;;4931211;29;20036;-77
2024/02/11 10:33:51;;;;;;;38.08;19.17;;;;;;;;;;4929194;29;20066;-77
2024/02/11 10:36:16;;;;;;;39.85;18.05;;;;;;;;;;4933713;29;20036;-76
2024/02/11 10:38:43;;;;;;;35.45;17.42;;;;;;;;;;4932784;29;20527;-77
2024/02/11 10:41:09;;;;;;;42.35;18.45;;;;;;;;;;4934000;29;20032;-77
2024/02/11 10:43:35;;;;;;;35.58;17.15;;;;;;;;;;4934240;29;20075;-76
2024/02/11 10:46:05;;;;;;;36.70;17.48;;;;;;;;;;4931788;29;20498;-77
2024/02/11 10:48:34;;;;;;;37.00;16.27;;;;;;;;;;4921877;29;20048;-78
2024/02/11 10:51:00;;;;;;;;;;;;;;;;;;4913792;29;20070;-78
2024/02/11 10:53:27;;;;;;;29.63;15.43;;;;;;;;;;4944048;29;19946;-77
2024/02/11 10:55:55;;;;;;;36.35;16.52;;;;;;;;;;4942490;29;20051;-76
2024/02/11 10:58:26;;;;;;;32.25;16.63;;;;;;;;;;4930271;29;20028;-77
2024/02/11 11:00:52;;;;;;;36.63;17.40;;;;;;;;;;4917887;29;20020;-76
2024/02/11 11:03:21;;;;;;;35.45;16.50;;;;;;;;;;4935484;29;20020;-77
2024/02/11 11:05:47;;;;;;;34.17;16.70;;;;;;;;;;4936392;29;20055;-77
2024/02/11 11:08:14;;;;;;;30.25;15.82;;;;;;;;;;4937019;29;20039;-78
2024/02/11 11:10:40;;;;;;;33.58;15.75;;;;;;;;;;4929819;29;20047;-79
2024/02/11 11:13:08;;;;;;;34.17;16.45;;;;;;;;;;4946265;29;20058;-76
2024/02/11 11:15:35;;;;;;;34.45;17.08;;;;;;;;;;4943062;29;20100;-77
2024/02/11 11:18:02;;;;;;;37.03;18.48;;;;;;;;;;4942416;29;20034;-77
2024/02/11 11:20:32;;;;;;;32.72;15.98;;;;;;;;;;4941981;29;20118;-77
2024/02/11 11:22:59;;;;;;;38.57;17.60;;;;;;;;;;4943056;29;20056;-77
2024/02/11 11:25:26;;;;;;;35.47;17.30;;;;;;;;;;4943349;29;20100;-77
2024/02/11 11:27:52;;;;;;;33.40;16.02;;;;;;;;;;4937730;29;20032;-76
2024/02/11 11:30:18;;;;;;;36.15;17.25;;;;;;;;;;4939634;29;20135;-79
2024/02/11 11:32:46;;;;;;;38.75;18.83;;;;;;;;;;4935232;29;20039;-79
2024/02/11 11:35:17;;;;;;;37.38;18.05;;;;;;;;;;4938667;29;20456;-77
2024/02/11 11:37:43;;;;;;;41.58;19.30;;;;;;;;;;4922797;29;20160;-78
2024/02/11 11:40:11;;;;;;;41.67;19.67;;;;;;;;;;4952236;29;20052;-77
2024/02/11 11:42:37;;;;;;;48.58;22.20;;;;;;;;;;4921890;29;20031;-76
2024/02/11 11:45:06;;;;;;;44.15;20.40;;;;;;;;;;4908528;29;20046;-76
2024/02/11 11:47:31;;;;;;;;;;;;;;;;;;4937863;29;20044;-77
2024/02/11 11:49:57;;;;;;;44.35;19.27;;;;;;;;;;4939338;29;20208;-76
2024/02/11 11:52:22;;;;;;;49.80;19.73;;;;;;;;;;4939389;29;20047;-78
2024/02/11 11:54:48;;;;;;;44.88;20.30;;;;;;;;;;4907927;29;20465;-79
2024/02/11 11:57:14;;;;;;;43.65;19.85;;;;;;;;;;4936693;29;20118;-77
2024/02/11 11:59:40;;;;;;;47.30;20.90;;;;;;;;;;4938136;29;20023;-77
2024/02/11 12:02:05;;;;;;;47.60;20.65;;;;;;;;;;4938442;29;20035;-77
2024/02/11 12:04:36;;;;;;;52.38;22.75;;;;;;;;;;4937019;29;20099;-77
2024/02/11 12:07:04;;;;;;;51.92;21.40;;;;;;;;;;4930998;29;20032;-77
2024/02/11 12:09:30;;;;;;;54.17;22.05;;;;;;;;;;4920700;29;20032;-77
2024/02/11 12:11:55;;;;;;;48.72;22.45;;;;;;;;;;4921946;29;20062;-77
2024/02/11 12:14:22;;;;;;;48.47;21.42;;;;;;;;;;4926165;29;20024;-77
2024/02/11 12:16:48;;;;;;;54.63;21.23;;;;;;;;;;4938202;29;20122;-77
2024/02/11 12:19:14;;;;;;;48.28;21.27;;;;;;;;;;4940348;29;20388;-77
2024/02/11 12:21:40;;;;;;;48.65;20.92;;;;;;;;;;4939368;29;20094;-77
2024/02/11 12:24:11;;;;;;;47.60;20.83;;;;;;;;;;4940671;29;20119;-76
2024/02/11 12:26:37;;;;;;;44.72;21.80;;;;;;;;;;4920898;29;20164;-77
2024/02/11 12:29:02;;;;;;;52.35;22.05;;;;;;;;;;4936055;29;20087;-77
2024/02/11 12:31:28;;;;;;;47.78;21.33;;;;;;;;;;4939819;29;20515;-78
2024/02/11 12:33:54;;;;;;;43.35;20.42;;;;;;;;;;4941252;29;20024;-77
2024/02/11 12:36:26;;;;;;;46.50;20.92;;;;;;;;;;4916966;29;20028;-77
2024/02/11 12:38:53;;;;;;;46.50;21.00;;;;;;;;;;4938039;29;20039;-77
2024/02/11 12:41:19;;;;;;;56.10;22.73;;;;;;;;;;4930087;29;20063;-77
2024/02/11 12:43:46;;;;;;;47.10;22.40;;;;;;;;;;4937664;29;20063;-77
2024/02/11 12:46:12;;;;;;;44.60;20.40;;;;;;;;;;4933964;29;20024;-77
2024/02/11 12:48:38;;;;;;;57.15;23.20;;;;;;;;;;4938076;29;20059;-76
2024/02/11 12:51:04;;;;;;;46.47;20.52;;;;;;;;;;4930428;29;20404;-77
2024/02/11 12:53:29;;;;;;;47.40;22.15;;;;;;;;;;4936084;29;20036;-77
2024/02/11 12:55:56;;;;;;;53.60;21.90;;;;;;;;;;4905282;29;20120;-76
2024/02/11 12:58:22;;;;;;;47.63;21.13;;;;;;;;;;4930644;29;20028;-77
2024/02/11 13:00:47;;;;;;;46.22;21.52;;;;;;;;;;4927430;29;20479;-76
2024/02/11 13:03:13;;;;;;;49.83;21.00;;;;;;;;;;4919226;29;20084;-77
2024/02/11 13:05:39;;;;;;;49.50;20.63;;;;;;;;;;4930064;29;20078;-76
2024/02/11 13:08:05;;;;;;;50.00;20.67;;;;;;;;;;4935163;29;20122;-76
2024/02/11 13:10:30;;;;;;;51.15;21.33;;;;;;;;;;4926708;29;20028;-76
2024/02/11 13:12:56;;;;;;;47.88;21.60;;;;;;;;;;4936769;29;20027;-77
2024/02/11 13:15:21;;;;;;;45.95;20.40;;;;;;;;;;4935289;29;20035;-76
2024/02/11 13:17:47;;;;;;;46.30;20.67;;;;;;;;;;4928220;29;20027;-77
2024/02/11 13:20:13;;;;;;;49.45;21.35;;;;;;;;;;4919844;29;20070;-77
2024/02/11 13:22:39;;;;;;;40.13;19.73;;;;;;;;;;4921719;29;20069;-77
2024/02/11 13:25:08;;;;;;;46.72;19.70;;;;;;;;;;4912636;29;20024;-77
2024/02/11 13:27:33;;;;;;;;;;;;;;;;;;4933752;29;20484;-77
2024/02/11 13:29:59;;;;;;;48.28;18.40;;;;;;;;;;4935111;29;19919;-76
2024/02/11 13:32:24;;;;;;;45.45;17.77;;;;;;;;;;4916930;29;20031;-77
2024/02/11 13:34:53;;;;;;;44.88;18.80;;;;;;;;;;4902574;29;20044;-77
2024/02/11 13:37:19;;;;;;;47.58;19.27;;;;;;;;;;4920375;29;20169;-78
2024/02/11 13:39:46;;;;;;;44.13;18.52;;;;;;;;;;4936781;29;20499;-78
2024/02/11 13:42:13;;;;;;;40.88;18.65;;;;;;;;;;4933859;29;20506;-77
2024/02/11 13:44:38;;;;;;;50.05;19.40;;;;;;;;;;4925356;29;20092;-77
2024/02/11 13:47:08;;;;;;;48.35;19.50;;;;;;;;;;4930956;29;20031;-77
2024/02/11 13:49:34;;;;;;;48.60;19.17;;;;;;;;;;4920136;29;20039;-77
2024/02/11 13:52:00;;;;;;;40.20;17.63;;;;;;;;;;4936968;29;20031;-77
2024/02/11 13:54:25;;;;;;;46.42;19.42;;;;;;;;;;4938378;29;20036;-78
2024/02/11 13:56:51;;;;;;;38.92;17.45;;;;;;;;;;4925333;29;20032;-77
2024/02/11 13:59:16;;;;;;;42.35;18.67;;;;;;;;;;4930288;29;20476;-78
2024/02/11 14:01:42;;;;;;;43.22;18.70;;;;;;;;;;4936414;29;20024;-78
2024/02/11 14:04:08;;;;;;;52.97;19.77;;;;;;;;;;4937364;29;20357;-78
2024/02/11 14:06:34;;;;;;;41.33;19.35;;;;;;;;;;4928496;29;20041;-77
2024/02/11 14:09:00;;;;;;;45.85;19.77;;;;;;;;;;4938138;29;20164;-78
2024/02/11 14:11:26;;;;;;;43.50;19.02;;;;;;;;;;4939229;29;20036;-77
2024/02/11 14:13:51;;;;;;;45.03;19.63;;;;;;;;;;4933224;29;20510;-77
2024/02/11 14:16:17;;;;;;;46.35;19.42;;;;;;;;;;4929884;29;20043;-77
2024/02/11 14:18:43;;;;;;;45.17;19.90;;;;;;;;;;4933888;29;20039;-77
2024/02/11 14:21:09;;;;;;;47.47;19.02;;;;;;;;;;4935054;29;20132;-77